sensor_id;sensor_type;location;lat;lon;timestamp;pressure;altitude;pressure_sealevel;temperature;humidity
54870;BME280;40756;-37.950;145.008;2023-02-18T00:01:20;101295.76;;;21.53;42.59
54870;BME280;40756;-37.950;145.008;2023-02-18T00:03:51;101296.21;;;21.05;43.63
54870;BME280;40756;-37.950;145.008;2023-02-18T00:06:22;101295.87;;;21.08;43.22
54870;BME280;40756;-37.950;145.008;2023-02-18T00:08:53;101301.11;;;20.85;44.06
54870;BME280;40756;-37.950;145.008;2023-02-18T00:11:23;101301.25;;;21.67;43.25
54870;BME280;40756;-37.950;145.008;2023-02-18T00:13:54;101309.69;;;20.98;43.98
54870;BME280;40756;-37.950;145.008;2023-02-18T00:16:27;101323.00;;;20.55;43.93
54870;BME280;40756;-37.950;145.008;2023-02-18T00:18:59;101322.32;;;20.99;43.63
54870;BME280;40756;-37.950;145.008;2023-02-18T00:21:29;101327.46;;;20.48;43.87
54870;BME280;40756;-37.950;145.008;2023-02-18T00:24:01;101324.20;;;20.70;43.81
54870;BME280;40756;-37.950;145.008;2023-02-18T00:26:32;101322.68;;;20.13;43.90
54870;BME280;40756;-37.950;145.008;2023-02-18T00:29:03;101322.17;;;20.29;43.10
54870;BME280;40756;-37.950;145.008;2023-02-18T00:31:35;101318.76;;;20.51;43.28
54870;BME280;40756;-37.950;145.008;2023-02-18T00:34:05;101316.71;;;20.96;43.32
54870;BME280;40756;-37.950;145.008;2023-02-18T00:36:35;101314.98;;;21.23;41.86
54870;BME280;40756;-37.950;145.008;2023-02-18T00:39:06;101318.34;;;20.26;42.61
54870;BME280;40756;-37.950;145.008;2023-02-18T00:41:36;101320.91;;;21.51;41.61
54870;BME280;40756;-37.950;145.008;2023-02-18T00:44:06;101322.87;;;20.96;41.77
54870;BME280;40756;-37.950;145.008;2023-02-18T00:46:36;101322.10;;;21.59;41.17
54870;BME280;40756;-37.950;145.008;2023-02-18T00:49:06;101314.67;;;21.43;40.10
54870;BME280;40756;-37.950;145.008;2023-02-18T00:51:36;101317.22;;;22.11;40.06
54870;BME280;40756;-37.950;145.008;2023-02-18T00:54:05;101314.21;;;22.18;39.27
54870;BME280;40756;-37.950;145.008;2023-02-18T00:56:35;101311.16;;;22.34;38.99
54870;BME280;40756;-37.950;145.008;2023-02-18T00:59:05;101315.99;;;22.48;38.75
54870;BME280;40756;-37.950;145.008;2023-02-18T01:01:35;101321.34;;;22.08;38.92
54870;BME280;40756;-37.950;145.008;2023-02-18T01:04:04;101319.12;;;22.01;39.16
54870;BME280;40756;-37.950;145.008;2023-02-18T01:06:34;101329.26;;;21.75;38.77
54870;BME280;40756;-37.950;145.008;2023-02-18T01:09:05;101318.62;;;21.93;39.37
54870;BME280;40756;-37.950;145.008;2023-02-18T01:11:35;101317.66;;;21.45;40.56
54870;BME280;40756;-37.950;145.008;2023-02-18T01:14:04;101319.22;;;22.56;39.12
54870;BME280;40756;-37.950;145.008;2023-02-18T01:16:33;101317.15;;;22.42;38.85
54870;BME280;40756;-37.950;145.008;2023-02-18T01:19:04;101326.19;;;22.48;37.99
54870;BME280;40756;-37.950;145.008;2023-02-18T01:21:33;101334.81;;;21.80;38.46
54870;BME280;40756;-37.950;145.008;2023-02-18T01:24:03;101335.18;;;22.29;38.95
54870;BME280;40756;-37.950;145.008;2023-02-18T01:26:33;101328.10;;;22.55;39.01
54870;BME280;40756;-37.950;145.008;2023-02-18T01:29:03;101327.20;;;21.07;40.19
54870;BME280;40756;-37.950;145.008;2023-02-18T01:31:32;101329.59;;;21.91;40.05
54870;BME280;40756;-37.950;145.008;2023-02-18T01:34:01;101321.31;;;22.13;39.82
54870;BME280;40756;-37.950;145.008;2023-02-18T01:36:31;101323.51;;;22.86;38.32
54870;BME280;40756;-37.950;145.008;2023-02-18T01:39:00;101316.07;;;22.17;40.70
54870;BME280;40756;-37.950;145.008;2023-02-18T01:41:29;101309.89;;;22.39;39.82
54870;BME280;40756;-37.950;145.008;2023-02-18T01:44:21;101302.45;;;21.90;39.97
54870;BME280;40756;-37.950;145.008;2023-02-18T01:46:51;101291.59;;;22.89;39.02
54870;BME280;40756;-37.950;145.008;2023-02-18T01:49:22;101276.70;;;22.63;38.27
54870;BME280;40756;-37.950;145.008;2023-02-18T01:51:56;101291.72;;;23.71;37.19
54870;BME280;40756;-37.950;145.008;2023-02-18T01:54:31;101292.80;;;22.52;37.12
54870;BME280;40756;-37.950;145.008;2023-02-18T01:57:03;101303.79;;;22.97;37.02
54870;BME280;40756;-37.950;145.008;2023-02-18T01:59:38;101308.26;;;22.46;37.26
54870;BME280;40756;-37.950;145.008;2023-02-18T02:02:11;101310.69;;;23.54;36.28
54870;BME280;40756;-37.950;145.008;2023-02-18T02:04:42;101291.10;;;23.70;37.50
54870;BME280;40756;-37.950;145.008;2023-02-18T02:07:12;101298.29;;;23.61;36.93
54870;BME280;40756;-37.950;145.008;2023-02-18T02:09:43;101294.74;;;23.75;36.79
54870;BME280;40756;-37.950;145.008;2023-02-18T02:12:27;101301.28;;;23.10;37.29
54870;BME280;40756;-37.950;145.008;2023-02-18T02:15:55;101313.18;;;23.44;36.89
54870;BME280;40756;-37.950;145.008;2023-02-18T02:18:36;101320.62;;;23.96;35.92
54870;BME280;40756;-37.950;145.008;2023-02-18T02:22:59;101319.89;;;24.29;35.08
54870;BME280;40756;-37.950;145.008;2023-02-18T02:25:51;101321.30;;;23.65;35.52
54870;BME280;40756;-37.950;145.008;2023-02-18T02:28:55;101323.94;;;23.92;33.65
54870;BME280;40756;-37.950;145.008;2023-02-18T02:32:14;101318.87;;;23.61;34.95
54870;BME280;40756;-37.950;145.008;2023-02-18T02:34:52;101324.15;;;22.86;35.51
54870;BME280;40756;-37.950;145.008;2023-02-18T02:37:30;101318.34;;;24.88;33.07
54870;BME280;40756;-37.950;145.008;2023-02-18T02:40:14;101326.79;;;25.01;32.76
54870;BME280;40756;-37.950;145.008;2023-02-18T02:43:01;101317.88;;;25.44;32.10
54870;BME280;40756;-37.950;145.008;2023-02-18T02:45:42;101320.17;;;25.88;31.52
54870;BME280;40756;-37.950;145.008;2023-02-18T02:48:21;101311.69;;;25.04;31.75
54870;BME280;40756;-37.950;145.008;2023-02-18T02:50:56;101318.73;;;24.47;31.33
54870;BME280;40756;-37.950;145.008;2023-02-18T02:53:33;101308.83;;;25.18;31.40
54870;BME280;40756;-37.950;145.008;2023-02-18T02:56:03;101303.00;;;25.40;30.93
54870;BME280;40756;-37.950;145.008;2023-02-18T02:58:32;101313.83;;;25.02;31.02
54870;BME280;40756;-37.950;145.008;2023-02-18T03:01:16;101308.19;;;25.93;30.13
54870;BME280;40756;-37.950;145.008;2023-02-18T03:04:11;101305.76;;;25.83;29.84
54870;BME280;40756;-37.950;145.008;2023-02-18T03:06:59;101320.02;;;24.58;30.86
54870;BME280;40756;-37.950;145.008;2023-02-18T03:09:41;101309.15;;;25.62;30.22
54870;BME280;40756;-37.950;145.008;2023-02-18T03:12:18;101311.88;;;26.72;28.93
54870;BME280;40756;-37.950;145.008;2023-02-18T03:14:58;101314.03;;;26.08;30.04
54870;BME280;40756;-37.950;145.008;2023-02-18T03:17:32;101310.40;;;25.43;30.18
54870;BME280;40756;-37.950;145.008;2023-02-18T03:20:09;101307.41;;;25.42;31.67
54870;BME280;40756;-37.950;145.008;2023-02-18T03:22:45;101304.47;;;24.77;31.79
54870;BME280;40756;-37.950;145.008;2023-02-18T03:25:17;101309.49;;;25.36;29.86
54870;BME280;40756;-37.950;145.008;2023-02-18T03:27:51;101312.76;;;26.15;30.76
54870;BME280;40756;-37.950;145.008;2023-02-18T03:30:25;101312.74;;;25.67;30.20
54870;BME280;40756;-37.950;145.008;2023-02-18T03:32:58;101304.50;;;26.38;30.50
54870;BME280;40756;-37.950;145.008;2023-02-18T03:35:29;101299.81;;;26.49;30.29
54870;BME280;40756;-37.950;145.008;2023-02-18T03:38:00;101303.13;;;26.95;30.73
54870;BME280;40756;-37.950;145.008;2023-02-18T03:40:31;101292.42;;;27.36;29.22
54870;BME280;40756;-37.950;145.008;2023-02-18T03:43:01;101291.42;;;26.44;29.12
54870;BME280;40756;-37.950;145.008;2023-02-18T03:45:31;101291.54;;;26.67;29.78
54870;BME280;40756;-37.950;145.008;2023-02-18T03:48:01;101295.28;;;26.17;31.05
54870;BME280;40756;-37.950;145.008;2023-02-18T03:50:30;101297.72;;;26.17;29.80
54870;BME280;40756;-37.950;145.008;2023-02-18T03:52:59;101296.95;;;27.40;29.07
54870;BME280;40756;-37.950;145.008;2023-02-18T03:55:29;101287.45;;;27.96;27.72
54870;BME280;40756;-37.950;145.008;2023-02-18T03:57:58;101283.13;;;27.80;27.21
54870;BME280;40756;-37.950;145.008;2023-02-18T04:00:27;101270.97;;;27.81;26.78
54870;BME280;40756;-37.950;145.008;2023-02-18T04:02:56;101270.92;;;27.26;27.10
54870;BME280;40756;-37.950;145.008;2023-02-18T04:05:26;101272.13;;;28.47;26.86
54870;BME280;40756;-37.950;145.008;2023-02-18T04:07:55;101268.53;;;28.55;24.61
54870;BME280;40756;-37.950;145.008;2023-02-18T04:10:25;101262.07;;;28.30;24.91
54870;BME280;40756;-37.950;145.008;2023-02-18T04:12:56;101267.42;;;28.50;21.78
54870;BME280;40756;-37.950;145.008;2023-02-18T04:15:27;101265.61;;;28.32;21.27
54870;BME280;40756;-37.950;145.008;2023-02-18T04:17:56;101265.39;;;28.05;20.57
54870;BME280;40756;-37.950;145.008;2023-02-18T04:20:25;101265.74;;;28.20;20.56
54870;BME280;40756;-37.950;145.008;2023-02-18T04:22:55;101265.92;;;27.70;21.09
54870;BME280;40756;-37.950;145.008;2023-02-18T04:25:25;101262.91;;;29.06;21.76
54870;BME280;40756;-37.950;145.008;2023-02-18T04:27:55;101270.25;;;28.82;21.99
54870;BME280;40756;-37.950;145.008;2023-02-18T04:30:24;101269.27;;;29.02;20.05
54870;BME280;40756;-37.950;145.008;2023-02-18T04:32:53;101263.46;;;29.10;21.04
54870;BME280;40756;-37.950;145.008;2023-02-18T04:35:23;101262.07;;;28.89;21.81
54870;BME280;40756;-37.950;145.008;2023-02-18T04:37:52;101256.15;;;29.24;22.32
54870;BME280;40756;-37.950;145.008;2023-02-18T04:40:22;101261.22;;;28.82;22.19
54870;BME280;40756;-37.950;145.008;2023-02-18T04:42:51;101262.80;;;28.69;21.50
54870;BME280;40756;-37.950;145.008;2023-02-18T04:45:21;101258.60;;;28.57;22.41
54870;BME280;40756;-37.950;145.008;2023-02-18T04:47:50;101252.99;;;28.54;22.40
54870;BME280;40756;-37.950;145.008;2023-02-18T04:50:20;101256.86;;;29.31;22.47
54870;BME280;40756;-37.950;145.008;2023-02-18T04:52:51;101263.63;;;28.94;22.19
54870;BME280;40756;-37.950;145.008;2023-02-18T04:55:20;101262.69;;;28.45;22.34
54870;BME280;40756;-37.950;145.008;2023-02-18T04:57:49;101261.05;;;28.29;20.97
54870;BME280;40756;-37.950;145.008;2023-02-18T05:00:20;101262.61;;;27.36;22.33
54870;BME280;40756;-37.950;145.008;2023-02-18T05:02:50;101253.21;;;28.16;23.63
54870;BME280;40756;-37.950;145.008;2023-02-18T05:05:19;101255.19;;;28.34;23.06
54870;BME280;40756;-37.950;145.008;2023-02-18T05:07:48;101253.23;;;28.54;23.36
54870;BME280;40756;-37.950;145.008;2023-02-18T05:10:18;101257.11;;;28.28;24.75
54870;BME280;40756;-37.950;145.008;2023-02-18T05:12:48;101252.27;;;28.36;25.30
54870;BME280;40756;-37.950;145.008;2023-02-18T05:15:17;101247.89;;;28.61;25.97
54870;BME280;40756;-37.950;145.008;2023-02-18T05:17:46;101247.75;;;28.79;27.04
54870;BME280;40756;-37.950;145.008;2023-02-18T05:20:16;101247.83;;;28.26;26.99
54870;BME280;40756;-37.950;145.008;2023-02-18T05:22:45;101252.19;;;28.83;27.52
54870;BME280;40756;-37.950;145.008;2023-02-18T05:25:15;101253.20;;;28.13;27.42
54870;BME280;40756;-37.950;145.008;2023-02-18T05:27:44;101249.89;;;27.87;26.33
54870;BME280;40756;-37.950;145.008;2023-02-18T05:30:15;101247.80;;;27.86;28.23
54870;BME280;40756;-37.950;145.008;2023-02-18T05:32:44;101252.11;;;26.82;28.47
54870;BME280;40756;-37.950;145.008;2023-02-18T05:35:13;101254.44;;;27.22;29.16
54870;BME280;40756;-37.950;145.008;2023-02-18T05:37:43;101244.29;;;27.55;28.86
54870;BME280;40756;-37.950;145.008;2023-02-18T05:40:12;101245.84;;;27.51;29.03
54870;BME280;40756;-37.950;145.008;2023-02-18T05:42:42;101242.17;;;27.90;28.88
54870;BME280;40756;-37.950;145.008;2023-02-18T05:45:12;101238.63;;;28.02;28.54
54870;BME280;40756;-37.950;145.008;2023-02-18T05:47:41;101238.19;;;28.00;28.09
54870;BME280;40756;-37.950;145.008;2023-02-18T05:50:11;101234.66;;;28.25;28.18
54870;BME280;40756;-37.950;145.008;2023-02-18T05:52:40;101240.71;;;27.40;28.78
54870;BME280;40756;-37.950;145.008;2023-02-18T05:55:10;101239.46;;;27.37;29.53
54870;BME280;40756;-37.950;145.008;2023-02-18T05:57:39;101238.42;;;26.64;31.37
54870;BME280;40756;-37.950;145.008;2023-02-18T06:00:09;101243.99;;;26.18;30.56
54870;BME280;40756;-37.950;145.008;2023-02-18T06:02:40;101241.99;;;26.46;31.46
54870;BME280;40756;-37.950;145.008;2023-02-18T06:05:10;101252.97;;;26.12;31.91
54870;BME280;40756;-37.950;145.008;2023-02-18T06:07:39;101257.30;;;26.51;32.12
54870;BME280;40756;-37.950;145.008;2023-02-18T06:10:09;101257.00;;;26.44;31.62
54870;BME280;40756;-37.950;145.008;2023-02-18T06:12:39;101256.71;;;26.08;32.50
54870;BME280;40756;-37.950;145.008;2023-02-18T06:15:09;101261.02;;;25.28;33.64
54870;BME280;40756;-37.950;145.008;2023-02-18T06:17:38;101260.89;;;25.67;34.05
54870;BME280;40756;-37.950;145.008;2023-02-18T06:20:09;101271.12;;;26.25;33.57
54870;BME280;40756;-37.950;145.008;2023-02-18T06:22:38;101267.79;;;26.52;33.16
54870;BME280;40756;-37.950;145.008;2023-02-18T06:25:08;101274.71;;;26.53;32.88
54870;BME280;40756;-37.950;145.008;2023-02-18T06:27:38;101278.34;;;26.30;33.30
54870;BME280;40756;-37.950;145.008;2023-02-18T06:30:09;101279.63;;;25.97;33.16
54870;BME280;40756;-37.950;145.008;2023-02-18T06:32:40;101276.14;;;26.02;32.60
54870;BME280;40756;-37.950;145.008;2023-02-18T06:35:09;101277.30;;;26.00;32.54
54870;BME280;40756;-37.950;145.008;2023-02-18T06:37:39;101278.90;;;26.23;32.24
54870;BME280;40756;-37.950;145.008;2023-02-18T06:40:09;101293.04;;;25.50;32.44
54870;BME280;40756;-37.950;145.008;2023-02-18T06:42:38;101285.30;;;26.01;32.94
54870;BME280;40756;-37.950;145.008;2023-02-18T06:45:08;101293.26;;;25.92;33.27
54870;BME280;40756;-37.950;145.008;2023-02-18T06:47:38;101296.22;;;25.36;33.64
54870;BME280;40756;-37.950;145.008;2023-02-18T06:50:08;101297.00;;;25.40;33.37
54870;BME280;40756;-37.950;145.008;2023-02-18T06:52:39;101301.02;;;25.16;34.22
54870;BME280;40756;-37.950;145.008;2023-02-18T06:55:09;101304.25;;;25.20;34.58
54870;BME280;40756;-37.950;145.008;2023-02-18T06:57:38;101306.23;;;24.84;35.06
54870;BME280;40756;-37.950;145.008;2023-02-18T07:00:09;101304.69;;;24.59;35.87
54870;BME280;40756;-37.950;145.008;2023-02-18T07:02:38;101298.90;;;24.14;36.13
54870;BME280;40756;-37.950;145.008;2023-02-18T07:05:08;101298.96;;;24.73;34.94
54870;BME280;40756;-37.950;145.008;2023-02-18T07:07:37;101297.55;;;25.08;35.30
54870;BME280;40756;-37.950;145.008;2023-02-18T07:10:08;101291.05;;;23.84;36.44
54870;BME280;40756;-37.950;145.008;2023-02-18T07:12:37;101296.03;;;25.10;35.69
54870;BME280;40756;-37.950;145.008;2023-02-18T07:15:07;101305.23;;;24.58;35.93
54870;BME280;40756;-37.950;145.008;2023-02-18T07:17:37;101302.35;;;23.61;36.93
54870;BME280;40756;-37.950;145.008;2023-02-18T07:20:08;101312.48;;;23.55;36.87
54870;BME280;40756;-37.950;145.008;2023-02-18T07:22:38;101319.39;;;23.65;36.82
54870;BME280;40756;-37.950;145.008;2023-02-18T07:25:07;101318.56;;;23.78;36.80
54870;BME280;40756;-37.950;145.008;2023-02-18T07:27:37;101315.23;;;23.19;37.37
54870;BME280;40756;-37.950;145.008;2023-02-18T07:30:08;101316.28;;;24.07;36.74
54870;BME280;40756;-37.950;145.008;2023-02-18T07:32:39;101321.59;;;23.01;37.28
54870;BME280;40756;-37.950;145.008;2023-02-18T07:35:10;101319.84;;;23.07;37.14
54870;BME280;40756;-37.950;145.008;2023-02-18T07:37:44;101323.53;;;23.20;37.02
54870;BME280;40756;-37.950;145.008;2023-02-18T07:40:17;101333.86;;;23.41;37.25
54870;BME280;40756;-37.950;145.008;2023-02-18T07:42:47;101328.62;;;23.48;36.93
54870;BME280;40756;-37.950;145.008;2023-02-18T07:45:17;101331.45;;;23.20;36.47
54870;BME280;40756;-37.950;145.008;2023-02-18T07:47:46;101343.58;;;23.21;36.87
54870;BME280;40756;-37.950;145.008;2023-02-18T07:50:16;101341.63;;;23.20;37.91
54870;BME280;40756;-37.950;145.008;2023-02-18T07:52:45;101342.44;;;23.47;37.98
54870;BME280;40756;-37.950;145.008;2023-02-18T07:55:14;101341.29;;;23.01;39.54
54870;BME280;40756;-37.950;145.008;2023-02-18T07:57:44;101348.81;;;22.71;39.59
54870;BME280;40756;-37.950;145.008;2023-02-18T08:00:14;101344.83;;;21.99;40.80
54870;BME280;40756;-37.950;145.008;2023-02-18T08:02:44;101353.14;;;22.10;41.49
54870;BME280;40756;-37.950;145.008;2023-02-18T08:05:14;101354.79;;;22.24;41.92
54870;BME280;40756;-37.950;145.008;2023-02-18T08:07:44;101349.01;;;22.09;41.21
54870;BME280;40756;-37.950;145.008;2023-02-18T08:10:13;101343.14;;;22.35;40.69
54870;BME280;40756;-37.950;145.008;2023-02-18T08:12:42;101345.91;;;22.99;39.53
54870;BME280;40756;-37.950;145.008;2023-02-18T08:15:12;101358.52;;;22.57;40.19
54870;BME280;40756;-37.950;145.008;2023-02-18T08:17:42;101366.66;;;22.18;40.35
54870;BME280;40756;-37.950;145.008;2023-02-18T08:20:12;101360.33;;;21.77;40.95
54870;BME280;40756;-37.950;145.008;2023-02-18T08:22:41;101359.17;;;21.84;41.38
54870;BME280;40756;-37.950;145.008;2023-02-18T08:25:11;101366.73;;;21.99;41.95
54870;BME280;40756;-37.950;145.008;2023-02-18T08:27:41;101368.68;;;21.78;41.51
54870;BME280;40756;-37.950;145.008;2023-02-18T08:30:11;101372.90;;;22.25;41.13
54870;BME280;40756;-37.950;145.008;2023-02-18T08:32:42;101378.83;;;21.44;41.74
54870;BME280;40756;-37.950;145.008;2023-02-18T08:35:12;101375.69;;;22.07;40.71
54870;BME280;40756;-37.950;145.008;2023-02-18T08:37:42;101368.83;;;21.50;41.99
54870;BME280;40756;-37.950;145.008;2023-02-18T08:40:12;101372.74;;;21.48;42.53
54870;BME280;40756;-37.950;145.008;2023-02-18T08:42:42;101373.66;;;21.28;42.79
54870;BME280;40756;-37.950;145.008;2023-02-18T08:45:11;101378.48;;;22.00;41.44
54870;BME280;40756;-37.950;145.008;2023-02-18T08:47:41;101382.45;;;22.11;41.16
54870;BME280;40756;-37.950;145.008;2023-02-18T08:50:11;101376.83;;;21.78;41.83
54870;BME280;40756;-37.950;145.008;2023-02-18T08:52:40;101388.12;;;21.44;42.68
54870;BME280;40756;-37.950;145.008;2023-02-18T08:55:09;101387.77;;;21.19;43.20
54870;BME280;40756;-37.950;145.008;2023-02-18T08:57:39;101390.97;;;21.84;42.17
54870;BME280;40756;-37.950;145.008;2023-02-18T09:00:09;101400.79;;;20.88;43.09
54870;BME280;40756;-37.950;145.008;2023-02-18T09:02:39;101403.17;;;21.49;42.74
54870;BME280;40756;-37.950;145.008;2023-02-18T09:05:15;101407.72;;;21.75;42.29
54870;BME280;40756;-37.950;145.008;2023-02-18T09:07:45;101404.61;;;21.67;42.06
54870;BME280;40756;-37.950;145.008;2023-02-18T09:10:14;101399.40;;;21.74;41.87
54870;BME280;40756;-37.950;145.008;2023-02-18T09:12:43;101404.67;;;21.86;41.43
54870;BME280;40756;-37.950;145.008;2023-02-18T09:15:13;101410.37;;;21.35;41.92
54870;BME280;40756;-37.950;145.008;2023-02-18T09:17:43;101410.03;;;21.89;41.68
54870;BME280;40756;-37.950;145.008;2023-02-18T09:20:12;101414.34;;;21.98;41.43
54870;BME280;40756;-37.950;145.008;2023-02-18T09:22:42;101418.70;;;21.91;41.44
54870;BME280;40756;-37.950;145.008;2023-02-18T09:25:11;101421.83;;;22.31;41.50
54870;BME280;40756;-37.950;145.008;2023-02-18T09:27:42;101425.72;;;21.73;42.10
54870;BME280;40756;-37.950;145.008;2023-02-18T09:30:11;101433.10;;;21.73;42.90
54870;BME280;40756;-37.950;145.008;2023-02-18T09:32:42;101439.72;;;21.30;42.99
54870;BME280;40756;-37.950;145.008;2023-02-18T09:35:12;101447.40;;;21.12;44.51
54870;BME280;40756;-37.950;145.008;2023-02-18T09:37:41;101454.61;;;21.37;44.04
54870;BME280;40756;-37.950;145.008;2023-02-18T09:40:24;101452.70;;;21.09;44.81
54870;BME280;40756;-37.950;145.008;2023-02-18T09:42:55;101458.26;;;20.74;45.73
54870;BME280;40756;-37.950;145.008;2023-02-18T09:45:26;101459.22;;;21.11;45.46
54870;BME280;40756;-37.950;145.008;2023-02-18T09:47:56;101462.38;;;21.29;45.03
54870;BME280;40756;-37.950;145.008;2023-02-18T09:50:29;101465.12;;;21.33;45.33
54870;BME280;40756;-37.950;145.008;2023-02-18T09:53:00;101469.88;;;21.20;45.60
54870;BME280;40756;-37.950;145.008;2023-02-18T09:55:32;101472.15;;;20.98;46.09
54870;BME280;40756;-37.950;145.008;2023-02-18T09:58:05;101471.96;;;20.87;45.68
54870;BME280;40756;-37.950;145.008;2023-02-18T10:00:37;101479.77;;;20.58;46.63
54870;BME280;40756;-37.950;145.008;2023-02-18T10:03:14;101483.97;;;21.02;46.18
54870;BME280;40756;-37.950;145.008;2023-02-18T10:05:52;101488.44;;;20.88;46.51
54870;BME280;40756;-37.950;145.008;2023-02-18T10:08:26;101489.77;;;20.91;45.90
54870;BME280;40756;-37.950;145.008;2023-02-18T10:10:56;101494.66;;;21.15;45.55
54870;BME280;40756;-37.950;145.008;2023-02-18T10:13:29;101493.58;;;21.31;45.29
54870;BME280;40756;-37.950;145.008;2023-02-18T10:15:59;101491.08;;;21.09;45.61
54870;BME280;40756;-37.950;145.008;2023-02-18T10:18:31;101495.38;;;20.80;46.31
54870;BME280;40756;-37.950;145.008;2023-02-18T10:21:06;101499.05;;;20.47;46.14
54870;BME280;40756;-37.950;145.008;2023-02-18T10:23:40;101506.07;;;20.86;45.88
54870;BME280;40756;-37.950;145.008;2023-02-18T10:26:16;101511.52;;;20.92;45.64
54870;BME280;40756;-37.950;145.008;2023-02-18T10:28:46;101516.10;;;20.96;46.13
54870;BME280;40756;-37.950;145.008;2023-02-18T10:31:21;101521.49;;;20.95;45.82
54870;BME280;40756;-37.950;145.008;2023-02-18T10:34:02;101524.10;;;20.94;46.05
54870;BME280;40756;-37.950;145.008;2023-02-18T10:36:43;101527.47;;;21.00;45.44
54870;BME280;40756;-37.950;145.008;2023-02-18T10:39:33;101537.39;;;20.94;45.62
54870;BME280;40756;-37.950;145.008;2023-02-18T10:42:16;101542.61;;;20.91;44.33
54870;BME280;40756;-37.950;145.008;2023-02-18T10:44:57;101539.25;;;20.95;43.10
54870;BME280;40756;-37.950;145.008;2023-02-18T10:47:37;101537.28;;;20.88;42.31
54870;BME280;40756;-37.950;145.008;2023-02-18T10:50:11;101536.38;;;20.84;41.47
54870;BME280;40756;-37.950;145.008;2023-02-18T10:52:44;101536.14;;;21.08;41.05
54870;BME280;40756;-37.950;145.008;2023-02-18T10:55:16;101539.51;;;21.19;40.49
54870;BME280;40756;-37.950;145.008;2023-02-18T10:57:48;101537.40;;;21.30;40.55
54870;BME280;40756;-37.950;145.008;2023-02-18T11:00:21;101539.11;;;21.41;40.25
54870;BME280;40756;-37.950;145.008;2023-02-18T11:03:15;101539.07;;;21.42;40.17
54870;BME280;40756;-37.950;145.008;2023-02-18T11:05:47;101538.26;;;21.31;40.39
54870;BME280;40756;-37.950;145.008;2023-02-18T11:08:21;101536.58;;;21.37;40.29
54870;BME280;40756;-37.950;145.008;2023-02-18T11:10:51;101539.60;;;21.24;40.22
54870;BME280;40756;-37.950;145.008;2023-02-18T11:13:26;101539.19;;;21.17;40.38
54870;BME280;40756;-37.950;145.008;2023-02-18T11:16:00;101537.73;;;21.13;40.61
54870;BME280;40756;-37.950;145.008;2023-02-18T11:18:36;101546.64;;;21.22;40.42
54870;BME280;40756;-37.950;145.008;2023-02-18T11:21:20;101549.04;;;21.43;40.45
54870;BME280;40756;-37.950;145.008;2023-02-18T11:23:54;101549.07;;;21.40;40.56
54870;BME280;40756;-37.950;145.008;2023-02-18T11:26:29;101550.32;;;21.24;40.82
54870;BME280;40756;-37.950;145.008;2023-02-18T11:29:04;101553.26;;;21.19;41.12
54870;BME280;40756;-37.950;145.008;2023-02-18T11:31:41;101558.11;;;20.94;41.32
54870;BME280;40756;-37.950;145.008;2023-02-18T11:34:17;101559.08;;;20.92;41.44
54870;BME280;40756;-37.950;145.008;2023-02-18T11:36:49;101565.85;;;20.91;41.37
54870;BME280;40756;-37.950;145.008;2023-02-18T11:39:22;101563.32;;;20.90;41.52
54870;BME280;40756;-37.950;145.008;2023-02-18T11:41:57;101564.02;;;21.20;41.92
54870;BME280;40756;-37.950;145.008;2023-02-18T11:44:30;101566.44;;;20.94;42.40
54870;BME280;40756;-37.950;145.008;2023-02-18T11:47:03;101569.93;;;21.03;42.68
54870;BME280;40756;-37.950;145.008;2023-02-18T11:49:34;101571.92;;;20.72;42.84
54870;BME280;40756;-37.950;145.008;2023-02-18T11:52:14;101572.00;;;20.60;42.99
54870;BME280;40756;-37.950;145.008;2023-02-18T11:54:59;101570.87;;;20.79;43.28
54870;BME280;40756;-37.950;145.008;2023-02-18T11:57:30;101572.81;;;20.67;43.60
54870;BME280;40756;-37.950;145.008;2023-02-18T12:00:00;101577.10;;;20.70;43.57
54870;BME280;40756;-37.950;145.008;2023-02-18T12:02:35;101575.23;;;20.64;43.88
54870;BME280;40756;-37.950;145.008;2023-02-18T12:05:10;101570.31;;;20.71;43.72
54870;BME280;40756;-37.950;145.008;2023-02-18T12:07:44;101570.20;;;20.42;43.83
54870;BME280;40756;-37.950;145.008;2023-02-18T12:10:21;101566.34;;;20.54;43.95
54870;BME280;40756;-37.950;145.008;2023-02-18T12:12:58;101565.57;;;20.53;43.99
54870;BME280;40756;-37.950;145.008;2023-02-18T12:15:40;101562.55;;;20.43;44.31
54870;BME280;40756;-37.950;145.008;2023-02-18T12:18:44;101562.98;;;20.21;44.25
54870;BME280;40756;-37.950;145.008;2023-02-18T12:21:25;101562.68;;;20.18;44.59
54870;BME280;40756;-37.950;145.008;2023-02-18T12:24:07;101566.75;;;20.29;44.37
54870;BME280;40756;-37.950;145.008;2023-02-18T12:26:47;101570.29;;;20.20;44.30
54870;BME280;40756;-37.950;145.008;2023-02-18T12:29:31;101568.42;;;20.56;44.08
54870;BME280;40756;-37.950;145.008;2023-02-18T12:32:16;101568.73;;;20.70;44.36
54870;BME280;40756;-37.950;145.008;2023-02-18T12:35:02;101569.31;;;20.45;45.06
54870;BME280;40756;-37.950;145.008;2023-02-18T12:37:58;101571.51;;;20.75;44.81
54870;BME280;40756;-37.950;145.008;2023-02-18T12:40:52;101575.53;;;20.47;45.20
54870;BME280;40756;-37.950;145.008;2023-02-18T12:43:34;101582.22;;;20.38;45.06
54870;BME280;40756;-37.950;145.008;2023-02-18T12:46:22;101582.84;;;20.34;45.17
54870;BME280;40756;-37.950;145.008;2023-02-18T12:49:42;101584.76;;;20.41;45.41
54870;BME280;40756;-37.950;145.008;2023-02-18T12:52:26;101586.31;;;20.65;45.85